Time;durP1;ratioP1;P1;durP2;ratioP2;P2;SDS_P1;SDS_P2;PMS_P1;PMS_P2;Temp;Humidity;BMP_temperature;BMP_pressure;BME280_temperature;BME280_humidity;BME280_pressure;Samples;Min_cycle;Max_cycle;Signal;HPM_P1;HPM_P2
2023/12/05 00:01:23;;;;;;;34.37;30.77;;;1.00;99.90;;;;;;5083551;28;20382;-72
2023/12/05 00:03:49;;;;;;;33.67;30.07;;;1.00;99.90;;;;;;5063093;28;20135;-72
2023/12/05 00:06:15;;;;;;;33.67;30.07;;;1.00;99.90;;;;;;5086234;28;20126;-73
2023/12/05 00:08:41;;;;;;;34.17;30.53;;;1.00;99.90;;;;;;5079243;28;20483;-72
2023/12/05 00:11:07;;;;;;;34.00;30.40;;;0.90;99.90;;;;;;5062611;28;20040;-73
2023/12/05 00:13:34;;;;;;;33.70;30.10;;;1.00;99.90;;;;;;5080593;28;20055;-73
2023/12/05 00:16:00;;;;;;;33.47;29.87;;;1.00;99.90;;;;;;5079681;28;20036;-73
2023/12/05 00:18:25;;;;;;;33.17;29.67;;;0.90;99.90;;;;;;5079373;28;20044;-72
2023/12/05 00:20:54;;;;;;;33.57;30.03;;;0.90;99.90;;;;;;5065712;28;20043;-72
2023/12/05 00:23:20;;;;;;;31.60;28.40;;;1.00;99.90;;;;;;5084340;28;20444;-73
2023/12/05 00:25:46;;;;;;;32.17;28.77;;;0.90;99.90;;;;;;5073731;28;20047;-72
2023/12/05 00:28:12;;;;;;;34.80;31.10;;;0.90;99.90;;;;;;5087672;28;20108;-72
2023/12/05 00:30:38;;;;;;;34.00;30.43;;;0.90;99.90;;;;;;5080754;28;20075;-73
2023/12/05 00:33:03;;;;;;;32.87;29.33;;;0.90;99.90;;;;;;5088147;28;20513;-73
2023/12/05 00:35:29;;;;;;;33.43;29.93;;;0.90;99.90;;;;;;5079609;28;20082;-73
2023/12/05 00:37:55;;;;;;;33.83;30.33;;;0.90;99.90;;;;;;5066113;28;20368;-73
2023/12/05 00:40:21;;;;;;;33.07;29.57;;;0.80;99.90;;;;;;5072330;28;20036;-72
2023/12/05 00:42:49;;;;;;;34.80;31.10;;;0.90;99.90;;;;;;5078995;28;20035;-73
2023/12/05 00:45:15;;;;;;;35.60;31.90;;;0.90;99.90;;;;;;5096308;28;20402;-73
2023/12/05 00:47:41;;;;;;;35.43;31.70;;;0.90;99.90;;;;;;5075939;28;20055;-73
2023/12/05 00:50:07;;;;;;;35.40;31.70;;;0.90;99.90;;;;;;5087101;28;20048;-73
2023/12/05 00:52:34;;;;;;;34.97;31.37;;;0.90;99.90;;;;;;5094408;28;20404;-73
2023/12/05 00:55:00;;;;;;;36.80;32.93;;;0.90;99.90;;;;;;5066132;28;20051;-73
2023/12/05 00:57:25;;;;;;;36.93;33.03;;;0.90;99.90;;;;;;5080777;28;20105;-73
2023/12/05 00:59:52;;;;;;;37.27;33.40;;;0.90;99.90;;;;;;5083330;28;20051;-73
2023/12/05 01:02:18;;;;;;;37.63;33.70;;;0.80;99.90;;;;;;5065019;28;20047;-73
2023/12/05 01:04:44;;;;;;;36.60;32.70;;;0.90;99.90;;;;;;5062389;28;20052;-73
2023/12/05 01:07:12;;;;;;;40.53;35.07;;;0.80;99.90;;;;;;5067044;28;20032;-72
2023/12/05 01:09:39;;;;;;;38.17;34.10;;;0.80;99.90;;;;;;5060955;28;20127;-72
2023/12/05 01:12:05;;;;;;;39.10;34.87;;;0.90;99.90;;;;;;5085335;28;20039;-72
2023/12/05 01:14:31;;;;;;;39.90;35.57;;;0.80;99.90;;;;;;5083430;28;20068;-73
2023/12/05 01:16:57;;;;;;;41.13;36.43;;;0.80;99.90;;;;;;5058426;28;20063;-72
2023/12/05 01:19:22;;;;;;;39.50;35.17;;;0.80;99.90;;;;;;5086869;28;20082;-73
2023/12/05 01:21:48;;;;;;;39.73;35.53;;;0.80;99.90;;;;;;5073413;28;20084;-73
2023/12/05 01:24:14;;;;;;;41.57;36.97;;;0.80;99.90;;;;;;5070735;28;20434;-73
2023/12/05 01:26:39;;;;;;;41.10;36.60;;;0.80;99.90;;;;;;5088952;28;20077;-73
2023/12/05 01:29:05;;;;;;;41.93;37.50;;;0.80;99.90;;;;;;5087226;28;20043;-75
2023/12/05 01:31:31;;;;;;;44.50;39.47;;;0.70;99.90;;;;;;5082056;28;20048;-74
2023/12/05 01:33:57;;;;;;;42.40;37.90;;;0.80;99.90;;;;;;5092280;28;20032;-74
2023/12/05 01:36:22;;;;;;;45.17;40.37;;;0.80;99.90;;;;;;5090101;28;20131;-74
2023/12/05 01:38:48;;;;;;;45.27;40.40;;;0.80;99.90;;;;;;5088323;28;20094;-74
2023/12/05 01:41:14;;;;;;;46.23;41.23;;;0.80;99.90;;;;;;5080448;28;20048;-75
2023/12/05 01:43:40;;;;;;;45.47;40.50;;;0.70;99.90;;;;;;5085810;28;21733;-74
2023/12/05 01:46:06;;;;;;;48.03;42.93;;;0.70;99.90;;;;;;5083041;28;20044;-75
2023/12/05 01:48:35;;;;;;;48.97;43.50;;;0.70;99.90;;;;;;5060593;28;20048;-75
2023/12/05 01:51:04;;;;;;;48.90;42.97;;;0.70;99.90;;;;;;5082954;28;20032;-74
2023/12/05 01:53:31;;;;;;;49.90;43.43;;;0.70;99.90;;;;;;5083787;28;20520;-73
2023/12/05 01:55:58;;;;;;;49.13;43.77;;;0.70;99.90;;;;;;5088703;28;20494;-74
2023/12/05 01:58:25;;;;;;;52.03;45.00;;;0.70;99.90;;;;;;5084594;28;20106;-74
2023/12/05 02:00:57;;;;;;;53.67;46.43;;;0.70;99.90;;;;;;5068205;28;20495;-75
2023/12/05 02:03:23;;;;;;;55.97;46.60;;;0.70;99.90;;;;;;5082958;28;20071;-73
2023/12/05 02:05:49;;;;;;;51.50;45.63;;;0.70;99.90;;;;;;5080495;28;20044;-74
2023/12/05 02:08:19;;;;;;;52.30;45.77;;;0.70;99.90;;;;;;5085616;28;20517;-74
2023/12/05 02:10:45;;;;;;;;;;;0.70;99.90;;;;;;5063889;28;20068;-73
2023/12/05 02:13:11;;;;;;;53.10;46.10;;;0.80;99.90;;;;;;5065406;28;20345;-74
2023/12/05 02:15:39;;;;;;;52.37;44.83;;;0.70;99.90;;;;;;5066963;28;20117;-73
2023/12/05 02:18:16;;;;;;;53.43;45.97;;;0.70;99.90;;;;;;5078026;28;20044;-74
2023/12/05 02:21:02;;;;;;;55.28;46.15;;;0.70;99.90;;;;;;5078780;28;20040;-74
2023/12/05 02:23:54;;;;;;;55.37;47.50;;;0.70;99.90;;;;;;5062933;28;20051;-73
2023/12/05 02:26:48;;;;;;;59.22;46.90;;;0.70;99.90;;;;;;5055409;28;20533;-73
2023/12/05 02:29:13;;;;;;;58.80;47.77;;;0.70;99.90;;;;;;5034947;28;20055;-73
2023/12/05 02:31:39;;;;;;;55.60;48.70;;;0.60;99.90;;;;;;5083343;28;20036;-73
2023/12/05 02:34:05;;;;;;;56.60;48.10;;;0.70;99.90;;;;;;5080413;28;20092;-72
2023/12/05 02:36:50;;;;;;;53.37;46.20;;;0.70;99.90;;;;;;5083880;28;20102;-72
2023/12/05 02:39:22;;;;;;;57.13;48.33;;;0.70;99.90;;;;;;5065880;28;20036;-73
2023/12/05 02:41:53;;;;;;;57.47;47.00;;;0.70;99.90;;;;;;5048440;28;20051;-72
2023/12/05 02:44:22;;;;;;;56.07;47.03;;;0.60;99.90;;;;;;5066801;28;20055;-72
2023/12/05 02:46:49;;;;;;;58.20;48.13;;;0.60;99.90;;;;;;5073654;28;20522;-72
2023/12/05 02:49:16;;;;;;;60.80;48.23;;;0.70;99.90;;;;;;5062020;28;20059;-75
2023/12/05 02:51:42;;;;;;;56.72;48.08;;;0.60;99.90;;;;;;5063856;28;20054;-76
2023/12/05 02:54:08;;;;;;;60.83;48.47;;;0.60;99.90;;;;;;5084856;28;20446;-76
2023/12/05 02:56:36;;;;;;;56.83;47.87;;;0.60;99.90;;;;;;5081895;28;20090;-76
2023/12/05 02:59:03;;;;;;;55.13;47.43;;;0.60;99.90;;;;;;5075290;28;20048;-77
2023/12/05 03:01:29;;;;;;;55.67;46.83;;;0.60;99.90;;;;;;5055213;28;20051;-78
2023/12/05 03:03:54;;;;;;;55.30;47.93;;;0.60;99.90;;;;;;5078001;28;20048;-76
2023/12/05 03:06:20;;;;;;;53.60;46.00;;;0.60;99.90;;;;;;5063935;28;20051;-77
2023/12/05 03:08:46;;;;;;;55.67;47.70;;;0.60;99.90;;;;;;5063369;28;20447;-77
2023/12/05 03:11:12;;;;;;;53.53;46.10;;;0.60;99.90;;;;;;5051679;28;20051;-78
2023/12/05 03:13:39;;;;;;;55.47;46.33;;;0.60;99.90;;;;;;5074763;28;20043;-77
2023/12/05 03:16:08;;;;;;;57.43;49.13;;;0.70;99.90;;;;;;5078425;28;20047;-71
2023/12/05 03:18:34;;;;;;;56.40;47.70;;;0.60;99.90;;;;;;5082130;28;20094;-72
2023/12/05 03:21:00;;;;;;;53.10;47.37;;;0.60;99.90;;;;;;5066475;28;22032;-71
2023/12/05 03:23:26;;;;;;;54.73;47.30;;;0.60;99.90;;;;;;5063859;28;20036;-72
2023/12/05 03:25:52;;;;;;;54.07;47.33;;;0.70;99.90;;;;;;5066231;28;20444;-71
2023/12/05 03:28:18;;;;;;;58.97;49.40;;;0.60;99.90;;;;;;5073945;28;20044;-72
2023/12/05 03:30:44;;;;;;;55.57;48.07;;;0.70;99.90;;;;;;5062472;28;20413;-72
2023/12/05 03:33:09;;;;;;;57.40;49.93;;;0.70;99.90;;;;;;5066483;28;20498;-71
2023/12/05 03:35:35;;;;;;;59.63;51.07;;;0.70;99.90;;;;;;5080409;28;20043;-71
2023/12/05 03:38:01;;;;;;;59.23;50.17;;;0.70;99.90;;;;;;5061973;28;20040;-71
2023/12/05 03:40:27;;;;;;;60.43;51.20;;;0.70;99.90;;;;;;5082138;28;20047;-71
2023/12/05 03:42:55;;;;;;;59.20;51.30;;;0.70;99.90;;;;;;5082049;28;20048;-71
2023/12/05 03:45:25;;;;;;;60.73;51.17;;;0.70;99.90;;;;;;5082979;28;20482;-71
2023/12/05 03:47:51;;;;;;;56.77;50.30;;;0.70;99.90;;;;;;5080407;28;20041;-70
2023/12/05 03:50:17;;;;;;;59.83;51.10;;;0.70;99.90;;;;;;5068407;28;20048;-70
2023/12/05 03:52:42;;;;;;;59.70;51.27;;;0.80;99.90;;;;;;5063873;28;20483;-71
2023/12/05 03:55:08;;;;;;;58.37;50.47;;;0.70;99.90;;;;;;5093457;28;20067;-70
2023/12/05 03:57:34;;;;;;;59.07;51.03;;;0.60;99.90;;;;;;5078124;28;20048;-71
2023/12/05 04:00:00;;;;;;;61.03;51.20;;;0.70;99.90;;;;;;5086576;28;20086;-71
2023/12/05 04:02:25;;;;;;;63.20;53.33;;;0.70;99.90;;;;;;5087918;28;20051;-78
2023/12/05 04:04:51;;;;;;;57.43;51.10;;;0.70;99.90;;;;;;5080901;28;20062;-75
2023/12/05 04:07:17;;;;;;;61.40;51.60;;;0.70;99.90;;;;;;5096949;28;20058;-77
2023/12/05 04:09:45;;;;;;;61.03;50.93;;;0.70;99.90;;;;;;5087100;28;20052;-76
2023/12/05 04:12:11;;;;;;;61.47;52.07;;;0.60;99.90;;;;;;5089235;28;20486;-76
2023/12/05 04:14:39;;;;;;;59.93;51.83;;;0.70;99.90;;;;;;5064539;28;20044;-75
2023/12/05 04:17:04;;;;;;;60.47;52.40;;;0.70;99.90;;;;;;5074698;28;20044;-77
2023/12/05 04:19:30;;;;;;;64.82;53.28;;;0.70;99.90;;;;;;5079039;28;20047;-71
2023/12/05 04:21:56;;;;;;;61.50;52.00;;;0.80;99.90;;;;;;5064755;28;20052;-71
2023/12/05 04:24:22;;;;;;;62.50;52.73;;;0.70;99.90;;;;;;5085562;28;20040;-71
2023/12/05 04:26:47;;;;;;;63.10;52.50;;;0.70;99.90;;;;;;5081906;28;20044;-71
2023/12/05 04:29:13;;;;;;;65.27;53.00;;;0.60;99.90;;;;;;5058400;28;20127;-78
2023/12/05 04:31:39;;;;;;;62.63;52.70;;;0.70;99.90;;;;;;5063671;28;20052;-77
2023/12/05 04:34:04;;;;;;;63.03;53.30;;;0.60;99.90;;;;;;5089761;28;20444;-76
2023/12/05 04:36:30;;;;;;;64.33;52.30;;;0.60;99.90;;;;;;5085953;28;20531;-78
2023/12/05 04:38:56;;;;;;;64.03;52.97;;;0.60;99.90;;;;;;5061360;28;20044;-78
2023/12/05 04:41:22;;;;;;;65.90;53.47;;;0.60;99.90;;;;;;5087715;28;20040;-77
2023/12/05 04:43:48;;;;;;;67.70;53.93;;;0.60;99.90;;;;;;5086847;28;20538;-77
2023/12/05 04:46:13;;;;;;;66.33;54.40;;;0.70;99.90;;;;;;5079421;28;20044;-77
2023/12/05 04:48:39;;;;;;;70.63;55.20;;;0.60;99.90;;;;;;5082695;28;20097;-77
2023/12/05 04:51:05;;;;;;;70.07;53.80;;;0.60;99.90;;;;;;5082535;28;20586;-78
2023/12/05 04:53:31;;;;;;;66.83;54.27;;;0.70;99.90;;;;;;5085545;28;20036;-77
2023/12/05 04:55:57;;;;;;;66.67;55.67;;;0.70;99.90;;;;;;5082171;28;20411;-77
2023/12/05 04:58:23;;;;;;;73.87;56.33;;;0.60;99.90;;;;;;5081328;28;20036;-78
2023/12/05 05:00:48;;;;;;;71.07;56.63;;;0.70;99.90;;;;;;5072326;28;20498;-78
2023/12/05 05:03:16;;;;;;;69.53;55.90;;;0.60;99.90;;;;;;5067783;28;20463;-78
2023/12/05 05:05:41;;;;;;;70.53;54.80;;;0.60;99.90;;;;;;5074537;28;20525;-77
2023/12/05 05:08:07;;;;;;;70.07;54.80;;;0.60;99.90;;;;;;5082532;28;20070;-78
2023/12/05 05:10:33;;;;;;;73.23;55.87;;;0.60;99.90;;;;;;5071139;28;20070;-78
2023/12/05 05:12:59;;;;;;;72.93;56.03;;;0.70;99.90;;;;;;5077565;28;20559;-78
2023/12/05 05:15:25;;;;;;;69.00;55.30;;;0.60;99.90;;;;;;5062564;28;20048;-76
2023/12/05 05:17:50;;;;;;;71.70;56.00;;;0.60;99.90;;;;;;5082361;28;20119;-78
2023/12/05 05:20:16;;;;;;;73.60;58.20;;;0.60;99.90;;;;;;5069552;28;20073;-78
2023/12/05 05:22:42;;;;;;;74.13;56.60;;;0.60;99.90;;;;;;5088509;28;20139;-77
2023/12/05 05:25:08;;;;;;;74.63;56.37;;;0.60;99.90;;;;;;5078512;28;20056;-78
2023/12/05 05:27:34;;;;;;;71.37;56.40;;;0.60;99.90;;;;;;5066344;28;20769;-77
2023/12/05 05:30:00;;;;;;;74.57;57.87;;;0.60;99.90;;;;;;5066153;28;20109;-76
2023/12/05 05:32:25;;;;;;;74.23;56.50;;;0.60;99.90;;;;;;5069661;28;20424;-77
2023/12/05 05:34:51;;;;;;;75.93;58.40;;;0.60;99.90;;;;;;5071536;28;20505;-78
2023/12/05 05:37:18;;;;;;;71.93;55.27;;;0.60;99.90;;;;;;5077961;28;20040;-71
2023/12/05 05:39:44;;;;;;;75.87;57.13;;;0.70;99.90;;;;;;5082654;28;20522;-78
2023/12/05 05:42:10;;;;;;;74.93;55.47;;;0.60;99.90;;;;;;5082585;28;20122;-78
2023/12/05 05:44:35;;;;;;;76.13;57.60;;;0.60;99.90;;;;;;5070656;28;20047;-78
2023/12/05 05:47:01;;;;;;;75.93;56.37;;;0.70;99.90;;;;;;5065691;28;20449;-72
2023/12/05 05:49:27;;;;;;;75.70;55.37;;;0.60;99.90;;;;;;5079315;28;20145;-72
2023/12/05 05:51:53;;;;;;;74.47;57.10;;;0.60;99.90;;;;;;5069956;28;20060;-71
2023/12/05 05:54:19;;;;;;;79.32;56.88;;;0.60;99.90;;;;;;5084139;28;20042;-72
2023/12/05 05:56:45;;;;;;;71.70;54.53;;;0.70;99.90;;;;;;5076633;28;20087;-72
2023/12/05 05:59:10;;;;;;;78.00;55.60;;;0.70;99.90;;;;;;5083144;28;20044;-73
2023/12/05 06:01:36;;;;;;;76.23;55.63;;;0.70;99.90;;;;;;5076877;28;20078;-73
2023/12/05 06:04:02;;;;;;;74.90;55.00;;;0.60;99.90;;;;;;5083100;28;20036;-72
2023/12/05 06:06:28;;;;;;;71.80;54.00;;;0.60;99.90;;;;;;5087420;28;20456;-74
2023/12/05 06:08:55;;;;;;;78.37;53.90;;;0.60;99.90;;;;;;5070292;28;20468;-73
2023/12/05 06:11:24;;;;;;;72.73;54.43;;;0.60;99.90;;;;;;5085241;28;20621;-73
2023/12/05 06:13:49;;;;;;;70.13;53.03;;;0.60;99.90;;;;;;5082373;28;20127;-78
2023/12/05 06:16:15;;;;;;;72.60;53.33;;;0.60;99.90;;;;;;5080011;28;20126;-79
2023/12/05 06:18:41;;;;;;;73.73;54.83;;;0.70;99.90;;;;;;5074771;28;20056;-77
2023/12/05 06:21:07;;;;;;;74.23;53.33;;;0.70;99.90;;;;;;5064496;28;20097;-78
2023/12/05 06:23:32;;;;;;;74.27;52.97;;;0.70;99.90;;;;;;5073413;28;20524;-79
2023/12/05 06:25:58;;;;;;;70.30;51.27;;;0.60;99.90;;;;;;5090181;28;20073;-78
2023/12/05 06:28:24;;;;;;;71.67;53.17;;;0.60;99.90;;;;;;5081029;28;20035;-78
2023/12/05 06:30:50;;;;;;;71.53;53.57;;;0.60;99.90;;;;;;5066744;28;20040;-78
2023/12/05 06:33:16;;;;;;;72.03;53.67;;;0.60;99.90;;;;;;5067253;28;20032;-77
2023/12/05 06:35:41;;;;;;;74.27;52.93;;;0.60;99.90;;;;;;5082453;28;20048;-78
2023/12/05 06:38:07;;;;;;;71.33;51.57;;;0.60;99.90;;;;;;5062294;28;20044;-78
2023/12/05 06:40:33;;;;;;;74.57;53.27;;;0.60;99.90;;;;;;5081691;28;20044;-78
2023/12/05 06:42:59;;;;;;;74.43;54.57;;;0.60;99.90;;;;;;5079597;28;20052;-77
2023/12/05 06:45:24;;;;;;;68.40;50.73;;;0.60;99.90;;;;;;5073283;28;20121;-77
2023/12/05 06:47:50;;;;;;;70.07;51.60;;;0.60;99.90;;;;;;5065593;28;20044;-77
2023/12/05 06:50:16;;;;;;;70.23;51.97;;;0.60;99.90;;;;;;5064060;28;20444;-77
2023/12/05 06:52:42;;;;;;;73.43;53.10;;;0.60;99.90;;;;;;5074562;28;20068;-77
2023/12/05 06:55:11;;;;;;;72.90;53.10;;;0.60;99.90;;;;;;5073644;28;20094;-77
2023/12/05 06:57:37;;;;;;;70.67;51.60;;;0.60;99.90;;;;;;5072884;28;20131;-77
2023/12/05 07:00:03;;;;;;;71.87;54.10;;;0.70;99.90;;;;;;5055484;28;20739;-77
2023/12/05 07:02:30;;;;;;;70.60;52.07;;;0.60;99.90;;;;;;5079743;28;20052;-77
2023/12/05 07:04:57;;;;;;;67.67;50.80;;;0.60;99.90;;;;;;5076793;28;20054;-78
2023/12/05 07:07:27;;;;;;;70.77;52.17;;;0.60;99.90;;;;;;5077138;28;20067;-77
2023/12/05 07:09:52;;;;;;;70.15;50.97;;;0.60;99.90;;;;;;5063641;28;20032;-77
2023/12/05 07:12:19;;;;;;;70.07;51.40;;;0.60;99.90;;;;;;5075493;28;20046;-77
2023/12/05 07:14:44;;;;;;;68.60;51.17;;;0.60;99.90;;;;;;5087000;28;20089;-78
2023/12/05 07:17:10;;;;;;;71.20;52.13;;;0.60;99.90;;;;;;5063038;28;20049;-77
2023/12/05 07:19:36;;;;;;;67.00;50.47;;;0.60;99.90;;;;;;5082550;28;20040;-76
2023/12/05 07:22:02;;;;;;;67.63;49.03;;;0.60;99.90;;;;;;5077506;28;20052;-76
2023/12/05 07:24:28;;;;;;;77.60;52.23;;;0.60;99.90;;;;;;5084077;28;20062;-77
2023/12/05 07:26:54;;;;;;;67.70;49.67;;;0.50;99.90;;;;;;5068878;28;20060;-76
2023/12/05 07:29:20;;;;;;;71.13;51.37;;;0.60;99.90;;;;;;5082283;28;20072;-76
2023/12/05 07:31:46;;;;;;;70.90;51.20;;;0.60;99.90;;;;;;5084640;28;20090;-77
2023/12/05 07:34:12;;;;;;;68.50;50.15;;;0.60;99.90;;;;;;5081307;28;20080;-76
2023/12/05 07:36:41;;;;;;;66.73;50.40;;;0.60;99.90;;;;;;5066262;28;20067;-75
2023/12/05 07:39:09;;;;;;;63.47;48.67;;;0.60;99.90;;;;;;5083594;28;20126;-76
2023/12/05 07:41:35;;;;;;;65.17;49.13;;;0.60;99.90;;;;;;5085581;28;20118;-76
2023/12/05 07:44:01;;;;;;;66.60;50.00;;;0.60;99.90;;;;;;5067309;28;20036;-76
2023/12/05 07:46:28;;;;;;;84.50;52.80;;;0.60;99.90;;;;;;5088629;28;20407;-76
2023/12/05 07:48:54;;;;;;;67.20;49.03;;;0.60;99.90;;;;;;5071203;28;20043;-76
2023/12/05 07:51:19;;;;;;;68.70;49.50;;;0.70;99.90;;;;;;5085149;28;20067;-76
2023/12/05 07:53:51;;;;;;;66.87;49.70;;;0.60;99.90;;;;;;5076811;28;20039;-76
2023/12/05 07:56:20;;;;;;;64.13;47.80;;;0.60;99.90;;;;;;5083239;28;20067;-76
2023/12/05 07:58:46;;;;;;;64.53;49.13;;;0.60;99.90;;;;;;5069550;28;20044;-76
2023/12/05 08:01:11;;;;;;;62.83;48.40;;;0.60;99.90;;;;;;5092857;28;20038;-75
2023/12/05 08:03:37;;;;;;;65.40;48.80;;;0.60;99.90;;;;;;5092143;28;20193;-75
2023/12/05 08:06:03;;;;;;;65.20;48.10;;;0.60;99.90;;;;;;5085826;28;20047;-73
2023/12/05 08:08:30;;;;;;;63.63;47.42;;;0.60;99.90;;;;;;5085761;28;20032;-74
2023/12/05 08:10:58;;;;;;;66.40;49.23;;;0.70;99.90;;;;;;5083215;28;20046;-74
2023/12/05 08:13:24;;;;;;;68.93;48.67;;;0.60;99.90;;;;;;5076345;28;20058;-75
2023/12/05 08:15:50;;;;;;;61.23;46.73;;;0.60;99.90;;;;;;5063935;28;20087;-74
2023/12/05 08:18:16;;;;;;;67.33;47.03;;;0.60;99.90;;;;;;5086912;28;20044;-74
2023/12/05 08:20:42;;;;;;;65.73;47.80;;;0.70;99.90;;;;;;5086618;28;20052;-75
2023/12/05 08:23:09;;;;;;;66.00;48.20;;;0.60;99.90;;;;;;5067359;28;21056;-74
2023/12/05 08:25:34;;;;;;;61.93;47.03;;;0.60;99.90;;;;;;5089367;28;20044;-74
2023/12/05 08:28:00;;;;;;;67.40;48.40;;;0.60;99.90;;;;;;5088864;28;20035;-74
2023/12/05 08:30:26;;;;;;;65.03;48.83;;;0.70;99.90;;;;;;5080346;28;20383;-74
2023/12/05 08:32:52;;;;;;;62.77;46.77;;;0.70;99.90;;;;;;5082878;28;20040;-74
2023/12/05 08:35:18;;;;;;;65.17;48.63;;;0.70;99.90;;;;;;5087026;28;20608;-75
2023/12/05 08:37:44;;;;;;;67.07;49.57;;;0.70;99.90;;;;;;5079184;28;20052;-74
2023/12/05 08:40:10;;;;;;;64.93;47.83;;;0.70;99.90;;;;;;5083009;28;20055;-75
2023/12/05 08:42:36;;;;;;;64.47;48.33;;;0.70;99.90;;;;;;5085917;28;20495;-76
2023/12/05 08:45:01;;;;;;;66.93;48.67;;;0.70;99.90;;;;;;5087727;28;20043;-76
2023/12/05 08:47:27;;;;;;;64.33;48.43;;;0.70;99.90;;;;;;5081606;28;20139;-76
2023/12/05 08:49:56;;;;;;;61.43;46.73;;;0.70;99.90;;;;;;5080357;28;20044;-76
2023/12/05 08:52:22;;;;;;;61.70;47.40;;;0.70;99.90;;;;;;5087809;28;20519;-76
2023/12/05 08:54:48;;;;;;;64.50;49.33;;;0.70;99.90;;;;;;5072072;28;20151;-72
2023/12/05 08:57:13;;;;;;;65.50;49.00;;;0.70;99.90;;;;;;5075409;28;20078;-73
2023/12/05 08:59:39;;;;;;;63.45;48.00;;;0.70;99.90;;;;;;5066497;28;20498;-73
2023/12/05 09:02:05;;;;;;;59.50;47.30;;;0.70;99.90;;;;;;5080567;28;20050;-70
2023/12/05 09:04:31;;;;;;;60.47;47.50;;;0.70;99.90;;;;;;5081728;28;20067;-73
2023/12/05 09:06:57;;;;;;;62.33;47.80;;;0.70;99.90;;;;;;5066140;28;20496;-72
2023/12/05 09:09:22;;;;;;;63.17;47.80;;;0.80;99.90;;;;;;5083603;28;20051;-75
2023/12/05 09:11:48;;;;;;;61.17;47.93;;;0.70;99.90;;;;;;5069637;28;20051;-76
2023/12/05 09:14:14;;;;;;;64.83;47.73;;;0.80;99.90;;;;;;5081626;28;20061;-76
2023/12/05 09:16:40;;;;;;;62.45;47.88;;;0.80;99.90;;;;;;5085860;28;20406;-76
2023/12/05 09:19:06;;;;;;;58.57;45.93;;;0.80;99.90;;;;;;5082054;28;20079;-76
2023/12/05 09:21:32;;;;;;;63.63;48.40;;;0.80;99.90;;;;;;5081196;28;20070;-76
2023/12/05 09:23:58;;;;;;;62.03;47.27;;;0.70;99.90;;;;;;5079315;28;20558;-76
2023/12/05 09:26:23;;;;;;;64.70;48.57;;;0.80;99.90;;;;;;5082313;28;20051;-76
2023/12/05 09:28:49;;;;;;;62.00;48.20;;;0.80;99.90;;;;;;5070013;28;20075;-76
2023/12/05 09:31:16;;;;;;;63.23;47.87;;;0.80;99.90;;;;;;5089277;28;20112;-76
2023/12/05 09:33:41;;;;;;;62.87;49.23;;;0.80;99.90;;;;;;5071926;28;20716;-76
2023/12/05 09:36:08;;;;;;;63.17;48.03;;;0.80;99.90;;;;;;5083661;28;20122;-77
2023/12/05 09:38:34;;;;;;;61.27;47.93;;;0.80;99.90;;;;;;5082692;28;20087;-76
2023/12/05 09:41:00;;;;;;;66.33;48.63;;;0.80;99.90;;;;;;5065243;28;20075;-76
2023/12/05 09:43:26;;;;;;;64.77;47.93;;;0.80;99.90;;;;;;5084913;28;20052;-77
2023/12/05 09:45:59;;;;;;;61.65;47.58;;;0.80;99.90;;;;;;5081623;28;20048;-76
2023/12/05 09:48:28;;;;;;;62.23;47.70;;;0.80;99.90;;;;;;5061817;28;21916;-75
2023/12/05 09:50:55;;;;;;;63.57;48.43;;;0.80;99.90;;;;;;5086403;28;20091;-75
2023/12/05 09:53:23;;;;;;;65.73;49.27;;;0.80;99.90;;;;;;5084442;28;20484;-74
2023/12/05 09:55:49;;;;;;;65.00;49.53;;;0.80;99.90;;;;;;5081654;28;20036;-74
2023/12/05 09:58:16;;;;;;;61.70;48.90;;;0.80;99.90;;;;;;5090443;28;20044;-74
2023/12/05 10:00:45;;;;;;;62.90;48.40;;;0.80;99.90;;;;;;5079554;28;20059;-73
2023/12/05 10:03:15;;;;;;;63.80;47.97;;;0.80;99.90;;;;;;5073096;28;20040;-74
2023/12/05 10:05:43;;;;;;;61.50;48.17;;;0.80;99.90;;;;;;5078931;28;20056;-74
2023/12/05 10:08:11;;;;;;;61.23;47.23;;;0.80;99.90;;;;;;5071245;28;20047;-74
2023/12/05 10:10:39;;;;;;;65.50;47.97;;;0.80;99.90;;;;;;5079550;28;20043;-74
2023/12/05 10:13:05;;;;;;;63.83;48.70;;;0.80;99.90;;;;;;5078908;28;20068;-74
2023/12/05 10:15:31;;;;;;;62.87;48.57;;;0.80;99.90;;;;;;5064185;28;20063;-73
2023/12/05 10:17:58;;;;;;;63.30;47.70;;;0.80;99.90;;;;;;5081137;28;20051;-74
2023/12/05 10:20:24;;;;;;;61.07;48.30;;;0.80;99.90;;;;;;5064706;28;20056;-74
2023/12/05 10:22:52;;;;;;;61.07;47.37;;;0.80;99.90;;;;;;5063725;28;20041;-73
2023/12/05 10:25:18;;;;;;;60.40;47.83;;;0.80;99.90;;;;;;5078247;28;20135;-73
2023/12/05 10:27:44;;;;;;;61.13;48.40;;;0.80;99.90;;;;;;5080953;28;20075;-73
2023/12/05 10:30:10;;;;;;;62.70;48.87;;;0.90;99.90;;;;;;5076995;28;20476;-74
2023/12/05 10:32:37;;;;;;;63.00;47.93;;;0.80;99.90;;;;;;5079077;28;20071;-74
2023/12/05 10:35:03;;;;;;;65.50;49.93;;;0.80;99.90;;;;;;5057022;28;20028;-74
2023/12/05 10:37:29;;;;;;;64.23;48.97;;;0.80;99.90;;;;;;5080427;28;20042;-73
2023/12/05 10:39:58;;;;;;;66.57;49.30;;;0.70;99.90;;;;;;5078201;28;20136;-70
2023/12/05 10:42:30;;;;;;;67.10;50.37;;;0.90;99.90;;;;;;5080902;28;20043;-73
2023/12/05 10:44:56;;;;;;;61.80;48.43;;;0.80;99.90;;;;;;5058414;28;20405;-74
2023/12/05 10:47:26;;;;;;;64.30;49.45;;;0.80;99.90;;;;;;5080685;28;20040;-74
2023/12/05 10:49:53;;;;;;;62.83;47.95;;;0.80;99.90;;;;;;5077283;28;20421;-74
2023/12/05 10:52:20;;;;;;;58.28;46.67;;;0.80;99.90;;;;;;5078069;28;20525;-74
2023/12/05 10:54:55;;;;;;;63.90;48.17;;;0.80;99.90;;;;;;5077754;28;20567;-74
2023/12/05 10:57:30;;;;;;;65.93;50.50;;;0.90;99.90;;;;;;5080964;28;20044;-74
2023/12/05 10:59:56;;;;;;;64.47;48.77;;;0.80;99.90;;;;;;5073406;28;20048;-74
2023/12/05 11:02:25;;;;;;;64.90;49.13;;;0.80;99.90;;;;;;5067363;28;20032;-74
2023/12/05 11:04:55;;;;;;;65.47;49.70;;;0.80;99.90;;;;;;5053920;28;20044;-76
2023/12/05 11:07:21;;;;;;;64.83;49.77;;;0.80;99.90;;;;;;5062671;28;20040;-75
2023/12/05 11:09:47;;;;;;;63.27;49.83;;;0.80;99.90;;;;;;5058493;28;20076;-75
2023/12/05 11:12:16;;;;;;;66.53;50.20;;;0.80;99.90;;;;;;5079806;28;20079;-72
2023/12/05 11:14:45;;;;;;;64.03;49.22;;;0.80;99.90;;;;;;5078450;28;20110;-71
2023/12/05 11:17:19;;;;;;;68.47;51.00;;;0.80;99.90;;;;;;5063793;28;20059;-71
2023/12/05 11:20:01;;;;;;;70.63;51.47;;;0.90;99.90;;;;;;5081077;28;20158;-71
2023/12/05 11:23:04;;;;;;;70.27;50.50;;;0.80;99.90;;;;;;5064073;28;20147;-74
2023/12/05 11:25:48;;;;;;;69.17;51.10;;;0.80;99.90;;;;;;5061007;28;20075;-74
2023/12/05 11:28:35;;;;;;;72.10;52.63;;;0.80;99.90;;;;;;5079406;28;20142;-74
2023/12/05 11:31:38;;;;;;;70.00;53.33;;;0.80;99.90;;;;;;5075296;28;20696;-74
2023/12/05 11:34:24;;;;;;;67.63;50.77;;;0.90;99.90;;;;;;5076270;28;20040;-74
2023/12/05 11:36:56;;;;;;;67.13;50.83;;;0.90;99.90;;;;;;5067260;28;20455;-74
2023/12/05 11:39:25;;;;;;;69.23;52.63;;;0.90;99.90;;;;;;5065017;28;20510;-74
2023/12/05 11:42:09;;;;;;;68.90;51.60;;;0.90;99.90;;;;;;5082472;28;20044;-74
2023/12/05 11:44:36;;;;;;;71.70;51.93;;;0.90;99.90;;;;;;5074239;28;20559;-73
2023/12/05 11:47:04;;;;;;;71.63;51.43;;;0.80;99.90;;;;;;5059004;28;20071;-74
2023/12/05 11:49:49;;;;;;;69.10;51.53;;;0.90;99.90;;;;;;5076709;28;20123;-74
2023/12/05 11:52:15;;;;;;;65.13;49.87;;;0.80;99.90;;;;;;5081706;28;20047;-73
2023/12/05 11:54:44;;;;;;;63.87;49.53;;;0.80;99.90;;;;;;5072160;28;20051;-74
2023/12/05 11:57:12;;;;;;;66.93;50.73;;;0.80;99.90;;;;;;5061721;28;20083;-73
2023/12/05 11:59:40;;;;;;;70.50;51.93;;;0.80;99.90;;;;;;5069438;28;20096;-73
2023/12/05 12:02:08;;;;;;;63.27;47.77;;;0.80;99.90;;;;;;5064802;28;20114;-74
2023/12/05 12:04:33;;;;;;;69.07;51.53;;;0.80;99.90;;;;;;5071704;28;20041;-74
2023/12/05 12:07:00;;;;;;;67.23;50.93;;;0.80;99.90;;;;;;5067895;28;20528;-73
2023/12/05 12:09:26;;;;;;;64.33;49.00;;;0.80;99.90;;;;;;5073848;28;21067;-73
2023/12/05 12:11:56;;;;;;;69.65;50.22;;;0.80;99.90;;;;;;5079102;28;20076;-74
2023/12/05 12:14:23;;;;;;;66.83;49.60;;;0.80;99.90;;;;;;5080820;28;20115;-73
2023/12/05 12:16:50;;;;;;;70.30;51.35;;;0.80;99.90;;;;;;5083191;28;20048;-74
2023/12/05 12:19:16;;;;;;;70.78;51.83;;;0.80;99.90;;;;;;5076462;28;20051;-73
2023/12/05 12:21:45;;;;;;;65.00;50.53;;;0.80;99.90;;;;;;5084851;28;20044;-73
2023/12/05 12:24:19;;;;;;;69.37;50.97;;;0.80;99.90;;;;;;5077627;28;20123;-73
2023/12/05 12:26:55;;;;;;;68.17;50.47;;;0.80;99.90;;;;;;5083843;28;20360;-74
2023/12/05 12:29:25;;;;;;;69.50;50.13;;;0.80;99.90;;;;;;5060713;28;20043;-73
2023/12/05 12:32:06;;;;;;;69.80;50.22;;;0.80;99.90;;;;;;5058146;28;20071;-74
2023/12/05 12:34:32;;;;;;;71.80;50.57;;;0.80;99.90;;;;;;5084625;28;20046;-73
2023/12/05 12:36:58;;;;;;;69.20;52.60;;;0.80;99.90;;;;;;5065863;28;20044;-74
2023/12/05 12:39:26;;;;;;;69.43;51.53;;;0.80;99.90;;;;;;5081259;28;20135;-73